Time;durP1;ratioP1;P1;durP2;ratioP2;P2;SDS_P1;SDS_P2;PMS_P1;PMS_P2;Temp;Humidity;BMP_temperature;BMP_pressure;BME280_temperature;BME280_humidity;BME280_pressure;Samples;Min_cycle;Max_cycle;Signal;HPM_P1;HPM_P2
2022/04/23 00:01:17;;;;;;;8.52;6.10;;;;;;;;;;4734333;30;20052;-86
2022/04/23 00:03:43;;;;;;;8.35;6.88;;;;;;;;;;4705410;30;20064;-86
2022/04/23 00:06:09;;;;;;;10.23;8.02;;;;;;;;;;4704512;30;20119;-87
2022/04/23 00:08:35;;;;;;;11.18;7.70;;;;;;;;;;4705308;30;20494;-87
2022/04/23 00:11:01;;;;;;;8.25;6.55;;;;;;;;;;4735147;30;20052;-87
2022/04/23 00:13:27;;;;;;;11.38;7.10;;;;;;;;;;4734233;30;20052;-87
2022/04/23 00:15:54;;;;;;;9.95;7.75;;;;;;;;;;4734996;30;20495;-87
2022/04/23 00:18:20;;;;;;;12.02;7.78;;;;;;;;;;4735066;30;20410;-87
2022/04/23 00:20:48;;;;;;;10.75;6.38;;;;;;;;;;4737578;30;20138;-86
2022/04/23 00:23:15;;;;;;;10.13;7.53;;;;;;;;;;4737462;30;20135;-87
2022/04/23 00:25:44;;;;;;;10.18;6.82;;;;;;;;;;4738593;30;20053;-87
2022/04/23 00:28:10;;;;;;;10.70;7.30;;;;;;;;;;4737642;30;20052;-87
2022/04/23 00:30:36;;;;;;;11.20;8.10;;;;;;;;;;4738187;30;20059;-90
2022/04/23 00:33:03;;;;;;;14.80;8.00;;;;;;;;;;4709132;30;20491;-90
2022/04/23 00:35:29;;;;;;;14.35;7.85;;;;;;;;;;4709564;30;20135;-90
2022/04/23 00:37:56;;;;;;;13.85;8.82;;;;;;;;;;4709373;30;20098;-91
2022/04/23 00:40:24;;;;;;;9.07;7.10;;;;;;;;;;4709627;30;20063;-92
2022/04/23 00:42:55;;;;;;;10.63;7.45;;;;;;;;;;4709356;30;20060;-90
2022/04/23 00:45:30;;;;;;;15.40;7.72;;;;;;;;;;4738680;30;20115;-92
2022/04/23 00:47:56;;;;;;;16.63;7.78;;;;;;;;;;4709379;30;20081;-92
2022/04/23 00:50:22;;;;;;;11.85;7.70;;;;;;;;;;4709687;30;20491;-93
2022/04/23 00:52:54;;;;;;;15.57;8.40;;;;;;;;;;4709336;30;20052;-93
2022/04/23 00:55:20;;;;;;;10.27;7.90;;;;;;;;;;4709031;30;20450;-90
2022/04/23 00:57:47;;;;;;;10.15;8.02;;;;;;;;;;4737901;30;20120;-89
2022/04/23 01:00:13;;;;;;;10.32;7.70;;;;;;;;;;4737898;30;20055;-89
2022/04/23 01:02:39;;;;;;;19.33;8.43;;;;;;;;;;4708927;30;20056;-91
2022/04/23 01:05:09;;;;;;;9.65;8.00;;;;;;;;;;4709052;30;20499;-90
2022/04/23 01:07:40;;;;;;;12.45;8.80;;;;;;;;;;4738084;30;20066;-93
2022/04/23 01:10:07;;;;;;;13.18;8.70;;;;;;;;;;4737859;30;20076;-93
2022/04/23 01:12:35;;;;;;;15.15;8.85;;;;;;;;;;4708448;30;20095;-91
2022/04/23 01:15:03;;;;;;;15.77;8.73;;;;;;;;;;4708746;30;20045;-89
2022/04/23 01:17:29;;;;;;;12.90;8.48;;;;;;;;;;4708450;30;20052;-91
2022/04/23 01:19:56;;;;;;;15.65;8.27;;;;;;;;;;4708746;30;20055;-89
2022/04/23 01:22:23;;;;;;;14.10;8.25;;;;;;;;;;4708328;30;20056;-91
2022/04/23 01:24:51;;;;;;;11.57;9.05;;;;;;;;;;4707372;30;20057;-86
2022/04/23 01:27:17;;;;;;;13.05;9.13;;;;;;;;;;4736028;30;20060;-86
2022/04/23 01:29:43;;;;;;;17.85;9.40;;;;;;;;;;4735690;30;20139;-86
2022/04/23 01:32:10;;;;;;;12.13;9.55;;;;;;;;;;4707479;30;20053;-86
2022/04/23 01:34:36;;;;;;;13.10;9.23;;;;;;;;;;4737015;30;20491;-87
2022/04/23 01:37:02;;;;;;;24.02;10.07;;;;;;;;;;4737112;30;20049;-86
2022/04/23 01:39:28;;;;;;;16.08;9.10;;;;;;;;;;4707133;30;20059;-87
2022/04/23 01:41:54;;;;;;;11.70;9.23;;;;;;;;;;4735971;30;20380;-87
2022/04/23 01:44:20;;;;;;;14.07;9.77;;;;;;;;;;4707681;30;20054;-86
2022/04/23 01:46:46;;;;;;;13.18;9.40;;;;;;;;;;4706393;30;20063;-87
2022/04/23 01:49:12;;;;;;;14.98;9.27;;;;;;;;;;4706802;30;20048;-86
2022/04/23 01:51:38;;;;;;;14.02;10.52;;;;;;;;;;4706549;30;20136;-86
2022/04/23 01:54:04;;;;;;;13.45;9.80;;;;;;;;;;4736243;30;20506;-86
2022/04/23 01:56:30;;;;;;;13.23;8.98;;;;;;;;;;4707490;30;20056;-85
2022/04/23 01:58:56;;;;;;;11.55;9.57;;;;;;;;;;4706688;30;20084;-86
2022/04/23 02:01:22;;;;;;;13.32;9.30;;;;;;;;;;4736887;30;20052;-89
2022/04/23 02:03:51;;;;;;;12.98;9.30;;;;;;;;;;4708187;30;20060;-89
2022/04/23 02:06:18;;;;;;;11.88;8.85;;;;;;;;;;4708556;30;20064;-87
2022/04/23 02:08:44;;;;;;;11.73;9.52;;;;;;;;;;4737083;30;20048;-93
2022/04/23 02:11:10;;;;;;;17.77;10.65;;;;;;;;;;4707568;30;20521;-87
2022/04/23 02:13:36;;;;;;;24.50;11.63;;;;;;;;;;4737389;30;20056;-86
2022/04/23 02:16:05;;;;;;;14.02;11.00;;;;;;;;;;4708478;30;20057;-88
2022/04/23 02:18:32;;;;;;;16.50;8.90;;;;;;;;;;4708824;30;20055;-92
2022/04/23 02:20:59;;;;;;;18.45;10.88;;;;;;;;;;4708983;30;20507;-88
2022/04/23 02:23:25;;;;;;;16.42;10.60;;;;;;;;;;4708361;30;20139;-92
2022/04/23 02:25:51;;;;;;;13.35;10.25;;;;;;;;;;4707818;30;20384;-88
2022/04/23 02:28:17;;;;;;;14.30;10.05;;;;;;;;;;4737272;30;20108;-91
2022/04/23 02:30:43;;;;;;;15.43;10.10;;;;;;;;;;4706931;30;20506;-90
2022/04/23 02:33:09;;;;;;;10.88;9.60;;;;;;;;;;4706734;30;20533;-90
2022/04/23 02:35:35;;;;;;;18.30;10.23;;;;;;;;;;4707216;30;20064;-90
2022/04/23 02:38:01;;;;;;;15.77;9.95;;;;;;;;;;4706876;30;20064;-92
2022/04/23 02:40:31;;;;;;;14.98;9.77;;;;;;;;;;4706907;30;20056;-92
2022/04/23 02:42:57;;;;;;;15.20;10.43;;;;;;;;;;4705850;30;20103;-89
2022/04/23 02:45:25;;;;;;;15.07;10.35;;;;;;;;;;4706850;30;20087;-90
2022/04/23 02:47:55;;;;;;;17.88;11.75;;;;;;;;;;4707165;30;20095;-89
2022/04/23 02:50:27;;;;;;;14.70;11.43;;;;;;;;;;4706540;30;20053;-87
2022/04/23 02:52:55;;;;;;;15.95;10.30;;;;;;;;;;4706679;30;20057;-86
2022/04/23 02:55:21;;;;;;;13.05;9.63;;;;;;;;;;4706333;30;20094;-87
2022/04/23 02:57:48;;;;;;;19.08;12.30;;;;;;;;;;4706805;30;20361;-87
2022/04/23 03:00:14;;;;;;;16.38;10.73;;;;;;;;;;4735237;30;20056;-86
2022/04/23 03:02:40;;;;;;;19.95;11.80;;;;;;;;;;4735490;30;20045;-86
2022/04/23 03:05:08;;;;;;;18.75;11.13;;;;;;;;;;4735324;30;20073;-87
2022/04/23 03:07:35;;;;;;;17.05;10.55;;;;;;;;;;4735529;30;20052;-86
2022/04/23 03:10:01;;;;;;;15.77;10.88;;;;;;;;;;4734530;30;20057;-87
2022/04/23 03:12:27;;;;;;;20.48;10.30;;;;;;;;;;4705636;30;20052;-87
2022/04/23 03:14:54;;;;;;;16.35;10.38;;;;;;;;;;4705944;30;20060;-86
2022/04/23 03:17:20;;;;;;;14.73;9.98;;;;;;;;;;4705596;30;20056;-87
2022/04/23 03:19:47;;;;;;;16.65;11.18;;;;;;;;;;4705300;30;20056;-86
2022/04/23 03:22:14;;;;;;;13.80;9.45;;;;;;;;;;4706196;30;20143;-86
2022/04/23 03:24:40;;;;;;;13.48;10.18;;;;;;;;;;4706002;30;20045;-85
2022/04/23 03:27:06;;;;;;;14.32;8.88;;;;;;;;;;4705462;30;20080;-88
2022/04/23 03:29:33;;;;;;;18.10;10.25;;;;;;;;;;4705366;30;20074;-89
2022/04/23 03:31:59;;;;;;;14.43;11.05;;;;;;;;;;4734278;30;20458;-86
2022/04/23 03:34:25;;;;;;;15.57;10.27;;;;;;;;;;4704897;30;20048;-86
2022/04/23 03:36:52;;;;;;;12.55;10.10;;;;;;;;;;4705616;30;20499;-86
2022/04/23 03:39:18;;;;;;;18.42;10.25;;;;;;;;;;4735680;30;20088;-86
2022/04/23 03:41:45;;;;;;;13.85;10.13;;;;;;;;;;4705358;30;20502;-86
2022/04/23 03:44:11;;;;;;;13.02;9.82;;;;;;;;;;4705640;30;20537;-86
2022/04/23 03:46:37;;;;;;;12.20;9.73;;;;;;;;;;4734627;30;20053;-86
2022/04/23 03:49:03;;;;;;;13.82;9.63;;;;;;;;;;4734377;30;20088;-86
2022/04/23 03:51:29;;;;;;;14.25;10.30;;;;;;;;;;4735256;30;20048;-87
2022/04/23 03:53:55;;;;;;;11.60;9.52;;;;;;;;;;4707363;30;20403;-86
2022/04/23 03:56:21;;;;;;;13.05;10.25;;;;;;;;;;4737922;30;20052;-86
2022/04/23 03:58:47;;;;;;;16.70;9.65;;;;;;;;;;4708622;30;20051;-86
2022/04/23 04:01:13;;;;;;;16.50;10.10;;;;;;;;;;4708803;30;20149;-86
2022/04/23 04:03:39;;;;;;;16.00;10.82;;;;;;;;;;4708512;30;20090;-87
2022/04/23 04:06:06;;;;;;;21.75;10.18;;;;;;;;;;4708416;30;20157;-87
2022/04/23 04:08:32;;;;;;;11.65;9.88;;;;;;;;;;4739139;30;20053;-91
2022/04/23 04:10:58;;;;;;;17.75;10.75;;;;;;;;;;4709837;30;20107;-86
2022/04/23 04:13:24;;;;;;;14.52;10.32;;;;;;;;;;4738101;30;20064;-92
2022/04/23 04:15:50;;;;;;;16.48;10.43;;;;;;;;;;4709889;30;20143;-87
2022/04/23 04:18:16;;;;;;;15.48;10.23;;;;;;;;;;4739120;30;20108;-88
2022/04/23 04:20:44;;;;;;;14.82;9.45;;;;;;;;;;4709880;30;20083;-89
2022/04/23 04:23:10;;;;;;;14.15;9.23;;;;;;;;;;4710176;30;20041;-90
2022/04/23 04:25:36;;;;;;;13.48;10.25;;;;;;;;;;4739109;30;20053;-90
2022/04/23 04:28:02;;;;;;;14.38;9.60;;;;;;;;;;4739346;30;20083;-93
2022/04/23 04:31:46;;;;;;;13.90;9.65;;;;;;;;;;4738637;30;20052;-90
2022/04/23 04:33:14;;;;;;;13.45;10.18;;;;;;;;;;4723870;30;20057;-91
2022/04/23 04:35:40;;;;;;;13.05;9.73;;;;;;;;;;4709360;30;20052;-88
2022/04/23 04:38:06;;;;;;;11.20;9.43;;;;;;;;;;4737703;30;20056;-89
2022/04/23 04:40:33;;;;;;;13.95;9.57;;;;;;;;;;4711665;30;20057;-88
2022/04/23 04:42:59;;;;;;;12.30;10.18;;;;;;;;;;4713940;30;20053;-92
2022/04/23 04:45:25;;;;;;;12.63;10.27;;;;;;;;;;4742246;30;20132;-93
2022/04/23 04:47:51;;;;;;;13.15;9.85;;;;;;;;;;4744110;30;20049;-89
2022/04/23 04:50:17;;;;;;;12.95;10.25;;;;;;;;;;4740702;30;20138;-89
2022/04/23 04:52:44;;;;;;;12.90;9.77;;;;;;;;;;4739539;30;20060;-91
2022/04/23 04:55:10;;;;;;;14.70;9.45;;;;;;;;;;4740876;30;20053;-90
2022/04/23 04:57:38;;;;;;;14.70;10.35;;;;;;;;;;4738922;30;20612;-91
2022/04/23 05:00:05;;;;;;;16.00;10.20;;;;;;;;;;4723054;30;20099;-91
2022/04/23 05:02:31;;;;;;;16.52;10.30;;;;;;;;;;4738010;30;20045;-90
2022/04/23 05:04:57;;;;;;;14.93;10.43;;;;;;;;;;4707339;30;20114;-87
2022/04/23 05:07:23;;;;;;;12.93;10.13;;;;;;;;;;4738336;30;20507;-87
2022/04/23 05:09:49;;;;;;;17.08;9.88;;;;;;;;;;4738336;30;20120;-87
2022/04/23 05:12:16;;;;;;;15.13;10.07;;;;;;;;;;4707930;30;20053;-87
2022/04/23 05:14:42;;;;;;;14.15;9.38;;;;;;;;;;4708046;30;20044;-87
2022/04/23 05:17:08;;;;;;;12.95;9.50;;;;;;;;;;4708518;30;20368;-89
2022/04/23 05:19:34;;;;;;;14.90;10.65;;;;;;;;;;4708023;30;20057;-86
2022/04/23 05:22:00;;;;;;;15.32;10.60;;;;;;;;;;4708101;30;20056;-86
2022/04/23 05:24:26;;;;;;;13.73;10.63;;;;;;;;;;4737292;30;20103;-86
2022/04/23 05:26:52;;;;;;;14.75;9.73;;;;;;;;;;4707924;30;20059;-86
2022/04/23 05:29:18;;;;;;;14.98;10.65;;;;;;;;;;4707843;30;20090;-87
2022/04/23 05:31:44;;;;;;;13.07;9.90;;;;;;;;;;4736439;30;20091;-86
2022/04/23 05:34:10;;;;;;;11.73;9.25;;;;;;;;;;4707081;30;20052;-86
2022/04/23 05:36:36;;;;;;;11.82;9.85;;;;;;;;;;4736007;30;20193;-85
2022/04/23 05:39:02;;;;;;;10.18;8.57;;;;;;;;;;4706843;30;20088;-86
2022/04/23 05:41:28;;;;;;;13.52;10.05;;;;;;;;;;4736814;30;20143;-86
2022/04/23 05:43:54;;;;;;;20.15;10.73;;;;;;;;;;4708437;30;20049;-86
2022/04/23 05:46:21;;;;;;;12.73;8.88;;;;;;;;;;4709025;30;20406;-87
2022/04/23 05:48:47;;;;;;;14.13;9.63;;;;;;;;;;4707503;30;20450;-87
2022/04/23 05:51:13;;;;;;;19.05;9.18;;;;;;;;;;4735809;30;20064;-87
2022/04/23 05:53:39;;;;;;;9.93;8.73;;;;;;;;;;4706889;30;20108;-87
2022/04/23 05:56:05;;;;;;;15.93;9.82;;;;;;;;;;4706834;30;20061;-87
2022/04/23 05:58:33;;;;;;;11.50;9.23;;;;;;;;;;4736825;30;20048;-85
2022/04/23 06:00:59;;;;;;;12.57;9.70;;;;;;;;;;4737363;30;20392;-85
2022/04/23 06:03:25;;;;;;;14.10;9.13;;;;;;;;;;4707124;30;20080;-85
2022/04/23 06:05:51;;;;;;;10.68;9.00;;;;;;;;;;4737200;30;20536;-91
2022/04/23 06:08:17;;;;;;;12.45;9.38;;;;;;;;;;4739653;30;20091;-86
2022/04/23 06:10:43;;;;;;;11.57;9.70;;;;;;;;;;4739059;30;20143;-90
2022/04/23 06:13:10;;;;;;;11.95;9.82;;;;;;;;;;4724779;30;20044;-85
2022/04/23 06:15:36;;;;;;;19.67;9.75;;;;;;;;;;4739358;30;20060;-95
2022/04/23 06:18:02;;;;;;;14.68;9.73;;;;;;;;;;4738267;30;20578;-87
2022/04/23 06:20:28;;;;;;;10.77;8.88;;;;;;;;;;4707938;30;20091;-87
2022/04/23 06:22:55;;;;;;;11.38;8.98;;;;;;;;;;4737789;30;20051;-85
2022/04/23 06:25:21;;;;;;;10.88;8.88;;;;;;;;;;4722164;30;20515;-85
2022/04/23 06:27:48;;;;;;;11.02;8.88;;;;;;;;;;4736700;30;20049;-85
2022/04/23 06:30:15;;;;;;;9.15;8.00;;;;;;;;;;4737529;30;20057;-90
2022/04/23 06:32:41;;;;;;;14.40;10.02;;;;;;;;;;4736200;30;20415;-86
2022/04/23 06:35:08;;;;;;;13.27;9.50;;;;;;;;;;4736691;30;20526;-86
2022/04/23 06:37:44;;;;;;;9.85;8.75;;;;;;;;;;4738105;30;20055;-85
2022/04/23 06:40:13;;;;;;;12.80;8.65;;;;;;;;;;4738512;30;20048;-87
2022/04/23 06:42:42;;;;;;;17.02;9.77;;;;;;;;;;4736154;30;20118;-91
2022/04/23 06:45:09;;;;;;;14.32;8.90;;;;;;;;;;4707297;30;20143;-88
2022/04/23 06:47:35;;;;;;;12.18;9.02;;;;;;;;;;4707087;30;20102;-89
2022/04/23 06:50:01;;;;;;;19.42;10.70;;;;;;;;;;4721900;30;20083;-88
2022/04/23 06:52:27;;;;;;;16.55;10.02;;;;;;;;;;4736727;30;20088;-85
2022/04/23 06:54:54;;;;;;;18.92;9.82;;;;;;;;;;4721278;30;20060;-84
2022/04/23 06:57:26;;;;;;;13.20;9.55;;;;;;;;;;4736598;30;20128;-85
2022/04/23 06:59:52;;;;;;;12.57;9.80;;;;;;;;;;4736003;30;20057;-84
2022/04/23 07:02:19;;;;;;;12.98;9.85;;;;;;;;;;4737238;30;20056;-84
2022/04/23 07:04:45;;;;;;;12.13;9.20;;;;;;;;;;4736133;30;20057;-84
2022/04/23 07:07:11;;;;;;;11.75;10.13;;;;;;;;;;4736036;30;20499;-84
2022/04/23 07:09:38;;;;;;;12.00;9.50;;;;;;;;;;4706035;30;20055;-84
2022/04/23 07:12:05;;;;;;;10.50;7.85;;;;;;;;;;4736324;30;20056;-83
2022/04/23 07:14:32;;;;;;;14.32;9.38;;;;;;;;;;4736786;30;20048;-84
2022/04/23 07:16:58;;;;;;;12.77;9.13;;;;;;;;;;4735875;30;20056;-84
2022/04/23 07:19:24;;;;;;;13.93;10.23;;;;;;;;;;4736640;30;20051;-83
2022/04/23 07:21:50;;;;;;;16.98;10.07;;;;;;;;;;4734925;30;20117;-84
2022/04/23 07:24:16;;;;;;;14.63;9.48;;;;;;;;;;4736750;30;20057;-85
2022/04/23 07:26:42;;;;;;;16.67;9.27;;;;;;;;;;4736019;30;20052;-84
2022/04/23 07:29:10;;;;;;;12.45;8.82;;;;;;;;;;4736111;30;20128;-85
2022/04/23 07:31:37;;;;;;;13.93;8.63;;;;;;;;;;4735019;30;20052;-84
2022/04/23 07:39:33;;;;;;;12.70;9.68;;;;;;;;;;4734897;30;20057;-84
2022/04/23 07:41:59;;;;;;;12.80;10.82;;;;;;;;;;4720608;30;20122;-84
2022/04/23 07:44:25;;;;;;;12.38;10.13;;;;;;;;;;4705011;30;20048;-85
2022/04/23 07:46:51;;;;;;;13.65;9.57;;;;;;;;;;4705668;30;20419;-84
2022/04/23 07:49:18;;;;;;;11.95;9.68;;;12.00;99.90;;;;;;4735530;30;20063;-91
2022/04/23 07:51:46;;;;;;;11.38;9.32;;;;;;;;;;4706473;30;20056;-91
2022/04/23 07:54:13;;;;;;;10.23;9.13;;;;;;;;;;4736087;30;20127;-86
2022/04/23 07:56:39;;;;;;;14.13;10.13;;;;;;;;;;4706212;30;20048;-86
2022/04/23 07:59:05;;;;;;;16.00;10.18;;;;;;;;;;4735379;30;20052;-89
2022/04/23 08:01:31;;;;;;;12.35;8.98;;;;;;;;;;4706236;30;20067;-90
2022/04/23 08:03:59;;;;;;;15.13;9.02;;;;;;;;;;4705934;30;20053;-91
2022/04/23 08:06:25;;;;;;;12.32;9.73;;;;;;;;;;4705560;30;20068;-88
2022/04/23 08:08:51;;;;;;;11.05;8.77;;;;;;;;;;4735459;30;20056;-90
2022/04/23 08:11:17;;;;;;;12.57;9.10;;;;;;;;;;4706794;30;20610;-86
2022/04/23 08:13:43;;;;;;;16.83;10.55;;;;;;;;;;4707514;30;20092;-87
2022/04/23 08:16:10;;;;;;;12.68;10.32;;;;;;;;;;4707475;30;20130;-88
2022/04/23 08:18:36;;;;;;;11.63;9.43;;;;;;;;;;4707128;30;20056;-87
2022/04/23 08:21:02;;;;;;;12.75;10.80;;;;;;;;;;4706899;30;20052;-89
2022/04/23 08:23:33;;;;;;;12.95;9.70;;;;;;;;;;4735891;30;20053;-88
2022/04/23 08:26:00;;;;;;;12.10;9.55;;;;;;;;;;4706979;30;20094;-91
2022/04/23 08:31:12;;;;;;;11.57;9.73;;;;;;;;;;4720446;30;20060;-86
2022/04/23 08:36:23;;;;;;;13.00;9.00;;;;;;;;;;4720694;30;20061;-91
2022/04/23 08:38:51;;;;;;;14.88;10.27;;;;;;;;;;4705541;30;20519;-84
2022/04/23 08:41:17;;;;;;;18.58;10.35;;;;;;;;;;4708344;30;20108;-84
2022/04/23 08:43:43;;;;;;;11.00;8.35;;;;;;;;;;4737763;30;20057;-84
2022/04/23 08:46:09;;;;;;;12.38;9.52;;;;;;;;;;4709098;30;20462;-85
2022/04/23 08:48:38;;;;;;;13.32;10.00;;;13.30;99.90;;;;;;4709667;30;20407;-85
2022/04/23 08:51:09;;;;;;;16.92;10.70;;;;;;;;;;4723172;30;20056;-84
2022/04/23 08:53:40;;;;;;;15.52;10.20;;;;;;;;;;4737781;30;20055;-84
2022/04/23 08:56:06;;;;;;;13.65;9.68;;;;;;;;;;4708537;30;20056;-84
2022/04/23 08:58:32;;;;;;;10.57;8.75;;;;;;;;;;4708723;30;20049;-84
2022/04/23 09:00:58;;;;;;;14.63;9.50;;;;;;;;;;4737384;30;20063;-84
2022/04/23 09:03:24;;;;;;;12.82;10.73;;;;;;;;;;4709436;30;20411;-84
2022/04/23 09:05:51;;;;;;;12.23;10.13;;;13.70;99.90;;;;;;4737299;30;20075;-84
2022/04/23 09:08:18;;;;;;;11.48;9.13;;;;;;;;;;4723431;30;20075;-84
2022/04/23 09:10:51;;;;;;;15.73;10.38;;;13.90;99.90;;;;;;4708608;30;20477;-85
2022/04/23 09:13:30;;;;;;;15.20;10.60;;;14.10;99.90;;;;;;4722939;30;20500;-84
2022/04/23 09:24:16;;;;;;;10.13;9.05;;;;;;;;;;4722601;30;20053;-84
2022/04/23 09:26:42;;;;;;;13.27;9.43;;;;;;;;;;4709327;30;20402;-84
2022/04/23 09:29:13;;;;;;;12.63;9.82;;;14.20;99.90;;;;;;4738095;30;20052;-85
2022/04/23 09:31:39;;;;;;;10.40;9.23;;;;;;;;;;4722236;30;20090;-84
2022/04/23 09:34:16;;;;;;;10.52;8.88;;;14.40;99.90;;;;;;4738349;30;20084;-83
2022/04/23 09:36:57;;;;;;;11.25;8.95;;;;;;;;;;4725178;30;20522;-84
2022/04/23 09:39:31;;;;;;;16.98;9.52;;;;;;;;;;4708255;30;20045;-84
2022/04/23 09:42:17;;;;;;;9.70;8.70;;;14.50;99.90;;;;;;4708111;30;20583;-84
2022/04/23 09:44:44;;;;;;;14.52;10.48;;;14.50;99.90;;;;;;4708138;30;20056;-84
2022/04/23 09:47:11;;;;;;;11.35;8.93;;;;;;;;;;4708067;30;20052;-85
2022/04/23 09:49:38;;;;;;;12.57;9.93;;;;;;;;;;4708166;30;20052;-84
2022/04/23 09:52:11;;;;;;;14.25;10.32;;;;;;;;;;4736724;30;20425;-84
2022/04/23 09:54:38;;;;;;;12.03;9.77;;;;;;;;;;4708285;30;20144;-85
2022/04/23 09:57:05;;;;;;;11.27;10.02;;;;;;;;;;4737857;30;20391;-85
2022/04/23 09:59:31;;;;;;;11.27;8.90;;;;;;;;;;4736922;30;20045;-85
2022/04/23 10:01:58;;;;;;;18.52;9.48;;;;;;;;;;4708468;30;20063;-82
2022/04/23 10:04:26;;;;;;;13.20;9.02;;;14.80;99.90;;;;;;4707605;30;20053;-84
2022/04/23 10:06:56;;;;;;;12.80;9.98;;;;;;;;;;4707792;30;20057;-83
2022/04/23 10:09:26;;;;;;;14.68;10.45;;;14.90;99.90;;;;;;4723267;30;20055;-82
2022/04/23 10:12:09;;;;;;;12.10;9.70;;;14.80;99.90;;;;;;4722444;30;20067;-82
2022/04/23 10:14:45;;;;;;;11.75;9.13;;;14.80;99.90;;;;;;4721670;30;20052;-83
2022/04/23 10:17:15;;;;;;;12.13;9.10;;;;;;;;;;4707547;30;20048;-82
2022/04/23 10:19:44;;;;;;;13.07;8.98;;;14.90;99.90;;;;;;4707448;30;20053;-83
2022/04/23 10:22:21;;;;;;;11.10;8.80;;;14.90;99.90;;;;;;4722194;30;20041;-83
2022/04/23 10:25:00;;;;;;;14.43;9.27;;;;;;;;;;4707961;30;20057;-84
2022/04/23 10:27:26;;;;;;;20.52;8.40;;;;;;;;;;4707464;30;20075;-84
2022/04/23 10:29:56;;;;;;;19.17;7.90;;;;;;;;;;4707698;30;20057;-83
2022/04/23 10:32:24;;;;;;;11.80;7.75;;;;;;;;;;4709216;30;20144;-84
2022/04/23 10:34:50;;;;;;;8.30;7.50;;;;;;;;;;4706830;30;20131;-84
2022/04/23 10:37:20;;;;;;;10.82;8.00;;;15.30;99.90;;;;;;4706718;30;20094;-84
2022/04/23 10:39:52;;;;;;;14.00;8.85;;;;;;;;;;4720667;30;20059;-83
2022/04/23 10:42:19;;;;;;;9.02;8.13;;;15.50;99.90;;;;;;4706625;30;20045;-83
2022/04/23 10:44:46;;;;;;;11.43;8.80;;;15.70;99.90;;;;;;4721506;30;20084;-83
2022/04/23 10:47:30;;;;;;;13.98;9.75;;;15.60;99.90;;;;;;4706746;30;20482;-83
2022/04/23 10:50:16;;;;;;;13.65;7.75;;;;;;;;;;4707470;30;20048;-83
2022/04/23 10:52:42;;;;;;;12.27;9.57;;;15.60;99.90;;;;;;4708149;30;20138;-83
2022/04/23 10:55:09;;;;;;;18.70;8.75;;;;;;;;;;4706924;30;20052;-83
2022/04/23 10:57:35;;;;;;;10.30;8.20;;;;;;;;;;4735777;30;20084;-84
2022/04/23 11:00:18;;;;;;;9.93;8.93;;;15.80;99.90;;;;;;4706905;30;20084;-84
2022/04/23 11:02:48;;;;;;;8.35;7.38;;;15.70;99.90;;;;;;4705914;30;20072;-84
2022/04/23 11:14:06;;;;;;;8.80;6.90;;;15.70;99.90;;;;;;4735269;30;20136;-84
2022/04/23 11:16:33;;;;;;;9.30;7.88;;;;;;;;;;4706168;30;20057;-84
2022/04/23 11:19:02;;;;;;;9.48;7.15;;;16.10;99.90;;;;;;4734799;30;20063;-83
2022/04/23 11:21:32;;;;;;;8.00;7.20;;;;;;;;;;4705975;30;20071;-84
2022/04/23 11:23:59;;;;;;;8.43;7.07;;;16.20;99.90;;;;;;4705993;30;20173;-83
2022/04/23 11:26:45;;;;;;;8.82;6.95;;;16.20;99.90;;;;;;4720429;30;20052;-83
2022/04/23 11:29:13;;;;;;;9.07;6.85;;;16.20;99.90;;;;;;4720257;30;20090;-83
2022/04/23 11:31:39;;;;;;;7.75;6.97;;;;;;;;;;4706249;30;20056;-83
2022/04/23 11:34:05;;;;;;;10.23;7.50;;;;;;;;;;4705804;30;20059;-84
2022/04/23 11:36:32;;;;;;;7.90;6.95;;;;;;;;;;4734638;30;20048;-84
2022/04/23 11:39:08;;;;;;;9.32;6.38;;;16.60;99.90;;;;;;4706928;30;20379;-84
2022/04/23 11:41:38;;;;;;;9.65;7.75;;;16.40;99.90;;;;;;4720543;30;20064;-83
2022/04/23 11:47:11;;;;;;;7.50;6.25;;;16.80;99.90;;;;;;4735889;30;20052;-84
2022/04/23 11:49:37;;;;;;;8.15;6.72;;;;;;;;;;4720115;30;20056;-84
2022/04/23 11:52:05;;;;;;;8.70;6.70;;;16.70;99.90;;;;;;4736180;30;20075;-84
2022/04/23 11:54:34;;;;;;;7.68;6.40;;;16.60;99.90;;;;;;4706393;30;20136;-84
2022/04/23 11:57:01;;;;;;;7.60;6.38;;;;;;;;;;4736291;30;20503;-83
2022/04/23 11:59:36;;;;;;;7.85;6.47;;;;;;;;;;4735780;30;20088;-84
2022/04/23 12:02:02;;;;;;;8.18;5.57;;;;;;;;;;4735274;30;20099;-88
2022/04/23 12:04:40;;;;;;;10.93;5.70;;;16.70;99.90;;;;;;4736213;30;20049;-88
2022/04/23 12:07:06;;;;;;;8.80;7.60;;;;;;;;;;4721117;30;20072;-88
2022/04/23 12:09:32;;;;;;;10.85;6.70;;;;;;;;;;4707082;30;20048;-84
2022/04/23 12:11:59;;;;;;;10.38;6.72;;;;;;;;;;4706089;30;20053;-88
2022/04/23 12:14:25;;;;;;;10.27;6.70;;;;;;;;;;4706997;30;20049;-88
2022/04/23 12:16:51;;;;;;;36.85;12.18;;;;;;;;;;4709671;30;20092;-86
2022/04/23 12:19:17;;;;;;;10.70;7.32;;;;;;;;;;4709697;30;20053;-86
2022/04/23 12:21:59;;;;;;;9.40;6.47;;;17.00;99.90;;;;;;4710422;30;20056;-87
2022/04/23 12:24:35;;;;;;;10.73;6.55;;;;;;;;;;4709853;30;20049;-88
2022/04/23 12:27:05;;;;;;;11.35;7.45;;;;;;;;;;4710514;30;20057;-87
2022/04/23 12:40:46;;;;;;;11.23;6.78;;;17.40;99.90;;;;;;4723730;30;20056;-87
2022/04/23 12:43:22;;;;;;;9.13;7.20;;;17.40;99.90;;;;;;4723717;30;20057;-87
2022/04/23 12:45:49;;;;;;;9.00;7.75;;;17.40;99.90;;;;;;4709462;30;20407;-86
2022/04/23 12:48:16;;;;;;;7.85;6.75;;;;;;;;;;4707920;30;20049;-84
2022/04/23 12:50:46;;;;;;;8.18;6.93;;;;;;;;;;4738029;30;20193;-84
2022/04/23 12:53:30;;;;;;;17.05;8.73;;;17.60;99.90;;;;;;4738082;30;20131;-84
2022/04/23 12:55:56;;;;;;;8.68;7.45;;;;;;;;;;4723252;30;20051;-84
2022/04/23 12:58:22;;;;;;;7.97;6.15;;;;;;;;;;4739239;30;20062;-86
2022/04/23 13:00:49;;;;;;;10.98;7.03;;;;;;;;;;4707886;30;20530;-84
2022/04/23 13:06:01;;;;;;;9.75;6.97;;;;;;;;;;4738259;30;20091;-84
2022/04/23 13:11:24;;;;;;;17.45;6.20;;;17.70;99.90;;;;;;4737849;30;20092;-84
2022/04/23 13:13:54;;;;;;;9.05;6.38;;;;;;;;;;4722715;30;20086;-84
2022/04/23 13:16:21;;;;;;;8.70;5.13;;;17.90;99.90;;;;;;4737845;30;20064;-85
2022/04/23 13:18:47;;;;;;;8.55;6.07;;;;;;;;;;4722228;30;20049;-84
2022/04/23 13:21:14;;;;;;;7.32;6.05;;;;;;;;;;4737960;30;20406;-84
2022/04/23 13:23:40;;;;;;;9.82;5.65;;;;;;;;;;4736842;30;20052;-84
2022/04/23 13:26:06;;;;;;;8.80;5.32;;;;;;;;;;4736881;30;20426;-85
2022/04/23 13:28:32;;;;;;;10.25;5.63;;;;;;;;;;4736821;30;20057;-83
2022/04/23 13:30:58;;;;;;;5.22;4.72;;;;;;;;;;4723575;30;20052;-84
2022/04/23 13:33:24;;;;;;;5.70;4.95;;;;;;;;;;4737733;30;20056;-85
2022/04/23 13:35:51;;;;;;;5.22;4.25;;;;;;;;;;4738008;30;20049;-83
2022/04/23 13:38:17;;;;;;;8.45;4.75;;;;;;;;;;4710154;30;20048;-85
2022/04/23 13:40:48;;;;;;;5.47;4.60;;;18.00;99.90;;;;;;4708882;30;20056;-85
2022/04/23 13:43:14;;;;;;;8.10;5.80;;;;;;;;;;4723003;30;20131;-85
2022/04/23 13:45:40;;;;;;;10.02;4.90;;;;;;;;;;4721799;30;20053;-86
2022/04/23 13:48:07;;;;;;;5.80;4.68;;;;;;;;;;4737395;30;20053;-86
2022/04/23 13:50:34;;;;;;;4.70;4.18;;;;;;;;;;4736516;30;20088;-85
2022/04/23 13:53:00;;;;;;;9.55;5.32;;;;;;;;;;4737110;30;20056;-85
2022/04/23 13:55:26;;;;;;;9.35;5.47;;;;;;;;;;4723567;30;20105;-85
2022/04/23 13:57:52;;;;;;;5.25;4.72;;;;;;;;;;4708617;30;20045;-86
2022/04/23 14:00:19;;;;;;;8.93;5.53;;;;;;;;;;4707145;30;20059;-85
2022/04/23 14:10:59;;;;;;;6.75;4.25;;;;;;;;;;4721614;30;20082;-86
2022/04/23 14:13:25;;;;;;;5.55;4.30;;;;;;;;;;4737301;30;20052;-86
2022/04/23 14:15:52;;;;;;;5.43;3.85;;;;;;;;;;4706806;30;20045;-86
2022/04/23 14:18:19;;;;;;;6.93;4.22;;;;;;;;;;4706484;30;20092;-86
2022/04/23 14:20:45;;;;;;;7.97;4.65;;;;;;;;;;4737197;30;20052;-85
2022/04/23 14:23:11;;;;;;;6.00;4.47;;;;;;;;;;4736937;30;20441;-85
2022/04/23 14:25:39;;;;;;;5.32;4.55;;;;;;;;;;4737150;30;20049;-85
2022/04/23 14:28:05;;;;;;;7.32;3.92;;;;;;;;;;4736997;30;20057;-85
2022/04/23 14:30:32;;;;;;;5.57;4.07;;;;;;;;;;4735856;30;20057;-86
2022/04/23 14:32:58;;;;;;;6.15;4.75;;;;;;;;;;4735579;30;20117;-87
2022/04/23 14:35:24;;;;;;;5.38;3.78;;;;;;;;;;4706864;30;20052;-87
2022/04/23 14:37:51;;;;;;;4.88;4.38;;;;;;;;;;4705777;30;20063;-87
2022/04/23 14:40:17;;;;;;;8.48;4.43;;;;;;;;;;4707055;30;20048;-87
2022/04/23 14:42:43;;;;;;;6.20;4.18;;;;;;;;;;4706905;30;20053;-85
2022/04/23 14:45:12;;;;;;;11.32;4.18;;;;;;;;;;4736298;30;20064;-88
2022/04/23 14:47:39;;;;;;;5.00;4.50;;;;;;;;;;4721889;30;20384;-87
2022/04/23 14:50:05;;;;;;;4.90;3.38;;;;;;;;;;4736945;30;20064;-87
2022/04/23 14:55:16;;;;;;;5.00;4.07;;;;;;;;;;4721225;30;20470;-87
2022/04/23 14:57:42;;;;;;;3.53;3.22;;;;;;;;;;4722449;30;20103;-87
2022/04/23 15:00:08;;;;;;;7.57;3.80;;;;;;;;;;4736749;30;20132;-87
2022/04/23 15:02:36;;;;;;;7.28;4.30;;;;;;;;;;4736230;30;20060;-88
2022/04/23 15:05:07;;;;;;;8.38;4.43;;;;;;;;;;4735548;30;20069;-86
2022/04/23 15:07:33;;;;;;;6.63;3.72;;;;;;;;;;4721276;30;20080;-87
2022/04/23 15:09:59;;;;;;;4.55;3.78;;;;;;;;;;4736567;30;20482;-88
2022/04/23 15:12:27;;;;;;;8.70;3.40;;;;;;;;;;4735461;30;20145;-87
2022/04/23 15:14:55;;;;;;;5.18;4.22;;;19.30;99.90;;;;;;4721726;30;20066;-87